| time (UTC) | temp F | wind direction | speed knots | gust knots | rain 1hr in | rain 24hr in | rain mn in | humidity % | barometer mb |
| 20260902113312 | 75 | 185 | 0.0 | 1.7 | 0.00 | 0.00 | 0.00 | 96 | 1019.2 |
| 20260902112812 | 75 | 162 | 0.0 | 0.9 | 0.00 | 0.00 | 0.00 | 96 | 1019.5 |
| 20260902112309 | 75 | 147 | 1.7 | 1.7 | 0.00 | 0.00 | 0.00 | 96 | 1019.5 |
| 20260902111804 | 75 | 168 | 0.0 | 0.9 | 0.00 | 0.00 | 0.00 | 95 | 1019.3 |
| 20260902111300 | 75 | 146 | 0.0 | 0.9 | 0.00 | 0.00 | 0.00 | 95 | 1019.2 |
| 20260902110755 | 75 | 155 | 0.9 | 1.7 | 0.00 | 0.00 | 0.00 | 96 | 1019.5 |
| 20260902110251 | 75 | 187 | 0.9 | 1.7 | 0.00 | 0.00 | 0.00 | 96 | 1019.2 |
| 20260902105750 | 75 | 215 | 0.0 | 0.9 | 0.00 | 0.00 | 0.00 | 96 | 1019.0 |
| 20260902105246 | 74 | 195 | 0.9 | 1.7 | 0.00 | 0.00 | 0.00 | 96 | 1019.1 |
| 20260902104741 | 74 | 184 | 1.7 | 1.7 | 0.00 | 0.00 | 0.00 | 96 | 1019.3 |
| 20260902104237 | 74 | 188 | 0.9 | 1.7 | 0.00 | 0.00 | 0.00 | 96 | 1019.1 |
| 20260902103736 | 74 | 194 | 0.9 | 1.7 | 0.00 | 0.00 | 0.00 | 96 | 1019.0 |
| 20260902103231 | 74 | 189 | 0.9 | 1.7 | 0.00 | 0.00 | 0.00 | 96 | 1019.1 |
| 20260902102727 | 74 | 159 | 0.9 | 1.7 | 0.00 | 0.00 | 0.00 | 96 | 1019.0 |
| 20260902102224 | 74 | 164 | 0.9 | 0.9 | 0.00 | 0.00 | 0.00 | 96 | 1018.9 |
| 20260902101719 | 74 | 187 | 0.9 | 1.7 | 0.00 | 0.00 | 0.00 | 97 | 1018.9 |
| 20260902101214 | 74 | 187 | 0.9 | 1.7 | 0.00 | 0.00 | 0.00 | 97 | 1019.1 |
| 20260902100708 | 74 | 180 | 0.0 | 1.7 | 0.00 | 0.00 | 0.00 | 97 | 1018.7 |
| 20260902100202 | 74 | 168 | 1.7 | 1.7 | 0.00 | 0.00 | 0.00 | 97 | 1018.9 |
| 20260902095701 | 74 | 159 | 0.9 | 1.7 | 0.00 | 0.00 | 0.00 | 97 | 1018.5 |
| 20260902095156 | 74 | 139 | 0.0 | 0.9 | 0.00 | 0.00 | 0.00 | 97 | 1018.9 |
| 20260902094651 | 74 | 119 | 0.0 | 0.0 | 0.00 | 0.00 | 0.00 | 97 | 1018.7 |
| 20260902094148 | 74 | 236 | 0.9 | 0.9 | 0.00 | 0.00 | 0.00 | 97 | 1018.8 |
| 20260902093646 | 74 | 158 | 1.7 | 1.7 | 0.00 | 0.00 | 0.00 | 97 | 1018.5 |
| 20260902093142 | 74 | 160 | 0.9 | 1.7 | 0.00 | 0.00 | 0.00 | 97 | 1018.6 |
| 20260902092636 | 74 | 133 | 0.9 | 1.7 | 0.00 | 0.00 | 0.00 | 97 | 1018.8 |
| 20260902092131 | 74 | 132 | 1.7 | 1.7 | 0.00 | 0.00 | 0.00 | 97 | 1018.5 |
| 20260902091626 | 74 | 92 | 0.0 | 0.0 | 0.00 | 0.00 | 0.00 | 97 | 1018.7 |
| 20260902091123 | 74 | 171 | 0.0 | 0.0 | 0.00 | 0.00 | 0.00 | 97 | 1018.4 |
| 20260902090618 | 74 | 101 | 0.9 | 1.7 | 0.00 | 0.00 | 0.00 | 97 | 1018.5 |
| 20260902090117 | 74 | 146 | 1.7 | 2.6 | 0.00 | 0.00 | 0.00 | 97 | 1018.5 |
| 20260902085612 | 74 | 159 | 0.9 | 1.7 | 0.00 | 0.00 | 0.00 | 98 | 1018.5 |
| 20260902085107 | 74 | 164 | 1.7 | 1.7 | 0.00 | 0.00 | 0.00 | 98 | 1018.7 |
| 20260902084603 | 74 | 116 | 0.0 | 0.9 | 0.00 | 0.00 | 0.00 | 98 | 1018.5 |
| 20260902084059 | 74 | 181 | 1.7 | 2.6 | 0.00 | 0.00 | 0.00 | 98 | 1018.4 |
| 20260902083553 | 74 | 140 | 1.7 | 1.7 | 0.00 | 0.00 | 0.00 | 98 | 1018.6 |
| 20260902083048 | 74 | 165 | 0.0 | 1.7 | 0.00 | 0.00 | 0.00 | 98 | 1018.5 |
| 20260902082543 | 74 | 133 | 0.0 | 0.0 | 0.00 | 0.00 | 0.00 | 98 | 1018.5 |
| 20260902082040 | 73 | 242 | 0.0 | 1.7 | 0.00 | 0.00 | 0.00 | 98 | 1018.4 |
| 20260902081536 | 74 | 159 | 1.7 | 1.7 | 0.00 | 0.00 | 0.00 | 98 | 1018.3 |
| 20260902081036 | 74 | 161 | 1.7 | 1.7 | 0.00 | 0.00 | 0.00 | 98 | 1018.4 |
| 20260902080531 | 74 | 150 | 0.0 | 0.9 | 0.00 | 0.00 | 0.00 | 97 | 1018.4 |
| 20260902080028 | 74 | 145 | 0.9 | 1.7 | 0.00 | 0.00 | 0.00 | 97 | 1018.4 |
| 20260902075527 | 74 | 96 | 0.0 | 0.9 | 0.00 | 0.00 | 0.00 | 97 | 1018.4 |
| 20260902075023 | 74 | 121 | 0.0 | 1.7 | 0.00 | 0.00 | 0.00 | 97 | 1018.3 |
| 20260902074519 | 74 | 119 | 0.9 | 1.7 | 0.00 | 0.00 | 0.00 | 97 | 1018.3 |
| 20260902074019 | 74 | 139 | 0.9 | 1.7 | 0.00 | 0.00 | 0.00 | 97 | 1018.3 |
| 20260902073509 | 74 | 134 | 0.9 | 1.7 | 0.00 | 0.00 | 0.00 | 97 | 1018.3 |
| 20260902073006 | 74 | 180 | 0.9 | 0.9 | 0.00 | 0.00 | 0.00 | 97 | 1018.3 |
| 20260902072500 | 74 | 183 | 0.9 | 0.9 | 0.00 | 0.00 | 0.00 | 97 | 1018.2 |
| 20260902071957 | 74 | 168 | 0.9 | 1.7 | 0.00 | 0.00 | 0.00 | 97 | 1018.2 |
| 20260902071456 | 74 | 176 | 0.9 | 1.7 | 0.00 | 0.00 | 0.00 | 97 | 1018.2 |
| 20260902070953 | 74 | 172 | 1.7 | 1.7 | 0.00 | 0.00 | 0.00 | 97 | 1018.2 |
| 20260902070448 | 74 | 165 | 0.9 | 1.7 | 0.00 | 0.00 | 0.00 | 97 | 1018.4 |
| 20260902065947 | 74 | 166 | 0.0 | 0.9 | 0.00 | 0.00 | 0.00 | 97 | 1018.4 |
| 20260902065442 | 74 | 135 | 0.9 | 0.9 | 0.00 | 0.00 | 0.00 | 97 | 1018.5 |
| 20260902064937 | 74 | 148 | 0.9 | 1.7 | 0.00 | 0.00 | 0.00 | 97 | 1018.3 |
| 20260902064433 | 74 | 194 | 0.0 | 0.0 | 0.00 | 0.00 | 0.00 | 97 | 1018.3 |
| 20260902063928 | 74 | 133 | 0.0 | 0.9 | 0.00 | 0.00 | 0.00 | 97 | 1018.3 |
| 20260902063428 | 74 | 142 | 0.0 | 0.9 | 0.00 | 0.00 | 0.00 | 97 | 1018.1 |
| 20260902062923 | 74 | 137 | 0.9 | 1.7 | 0.00 | 0.00 | 0.00 | 96 | 1018.2 |
| 20260902062422 | 74 | 127 | 0.9 | 1.7 | 0.00 | 0.00 | 0.00 | 96 | 1018.2 |
| 20260902061917 | 75 | 159 | 0.9 | 1.7 | 0.00 | 0.00 | 0.00 | 96 | 1018.3 |
| 20260902061412 | 75 | 175 | 0.9 | 1.7 | 0.00 | 0.00 | 0.00 | 97 | 1018.2 |
| 20260902060908 | 75 | 182 | 0.9 | 1.7 | 0.00 | 0.00 | 0.00 | 97 | 1018.1 |
| 20260902060404 | 75 | 175 | 0.9 | 1.7 | 0.00 | 0.00 | 0.00 | 97 | 1018.3 |
| 20260902055900 | 75 | 195 | 0.9 | 1.7 | 0.00 | 0.00 | 0.00 | 97 | 1018.2 |
| 20260902055356 | 75 | 171 | 0.9 | 1.7 | 0.00 | 0.00 | 0.00 | 96 | 1018.2 |
| 20260902054851 | 75 | 184 | 0.0 | 1.7 | 0.00 | 0.00 | 0.00 | 96 | 1018.3 |
| 20260902054346 | 75 | 177 | 1.7 | 1.7 | 0.00 | 0.00 | 0.00 | 96 | 1018.2 |
| 20260902053842 | 75 | 161 | 0.9 | 1.7 | 0.00 | 0.00 | 0.00 | 96 | 1018.3 |
| 20260902053336 | 75 | 160 | 0.9 | 0.9 | 0.00 | 0.00 | 0.00 | 96 | 1018.1 |
| 20260902052835 | 75 | 159 | 0.0 | 0.9 | 0.00 | 0.00 | 0.00 | 96 | 1018.2 |
| 20260902052331 | 75 | 168 | 0.0 | 0.9 | 0.00 | 0.00 | 0.00 | 96 | 1018.1 |
| 20260902051826 | 75 | 164 | 0.9 | 0.9 | 0.00 | 0.00 | 0.00 | 96 | 1018.4 |
| 20260902051325 | 75 | 146 | 0.9 | 0.9 | 0.00 | 0.00 | 0.00 | 95 | 1018.2 |
| 20260902050820 | 76 | 139 | 0.0 | 0.9 | 0.00 | 0.00 | 0.00 | 95 | 1018.2 |
| 20260902050320 | 76 | 154 | 0.0 | 0.9 | 0.00 | 0.00 | 0.00 | 95 | 1018.3 |
| 20260902045815 | 76 | 147 | 0.0 | 0.9 | 0.00 | 0.00 | 0.00 | 95 | 1018.4 |
| 20260902045311 | 76 | 179 | 0.9 | 1.7 | 0.00 | 0.00 | 0.00 | 95 | 1018.0 |
| 20260902044807 | 76 | 187 | 0.9 | 1.7 | 0.00 | 0.00 | 0.00 | 95 | 1018.1 |
| 20260902044302 | 76 | 158 | 0.0 | 0.9 | 0.00 | 0.00 | 0.00 | 95 | 1018.2 |
| 20260902043756 | 76 | 184 | 0.0 | 0.0 | 0.00 | 0.00 | 0.00 | 94 | 1018.1 |
| 20260902043252 | 76 | 92 | 0.0 | 1.7 | 0.00 | 0.00 | 0.00 | 94 | 1017.8 |
| 20260902042751 | 76 | 156 | 0.9 | 1.7 | 0.00 | 0.00 | 0.00 | 94 | 1018.0 |
| 20260902042246 | 77 | 189 | 0.9 | 1.7 | 0.00 | 0.00 | 0.00 | 93 | 1018.0 |
| 20260902041742 | 77 | 180 | 0.9 | 1.7 | 0.00 | 0.00 | 0.00 | 93 | 1018.0 |
| 20260902041241 | 77 | 170 | 0.9 | 1.7 | 0.00 | 0.00 | 0.00 | 93 | 1017.9 |
| 20260902040741 | 77 | 145 | 1.7 | 1.7 | 0.00 | 0.00 | 0.00 | 92 | 1017.9 |
| 20260902040236 | 77 | 235 | 0.0 | 0.9 | 0.00 | 0.00 | 0.00 | 92 | 1017.8 |
| 20260902035735 | 77 | 192 | 0.0 | 1.7 | 0.00 | 0.00 | 0.00 | 92 | 1017.8 |
| 20260902035231 | 77 | 150 | 1.7 | 1.7 | 0.00 | 0.00 | 0.00 | 92 | 1017.7 |
| 20260902034729 | 77 | 174 | 0.9 | 1.7 | 0.00 | 0.00 | 0.00 | 92 | 1017.7 |
| 20260902034224 | 77 | 184 | 0.0 | 0.9 | 0.00 | 0.00 | 0.00 | 92 | 1017.6 |
| 20260902033722 | 77 | 187 | 1.7 | 1.7 | 0.00 | 0.00 | 0.00 | 92 | 1017.5 |
| 20260902033218 | 77 | 186 | 0.9 | 0.9 | 0.00 | 0.00 | 0.00 | 92 | 1017.5 |
| 20260902032716 | 77 | 159 | 0.9 | 1.7 | 0.00 | 0.00 | 0.00 | 91 | 1017.5 |
| 20260902032212 | 77 | 143 | 0.0 | 0.9 | 0.00 | 0.00 | 0.00 | 91 | 1017.3 |
| 20260902031711 | 77 | 186 | 0.9 | 1.7 | 0.00 | 0.00 | 0.00 | 91 | 1017.5 |
| 20260902031201 | 78 | 152 | 0.9 | 0.9 | 0.00 | 0.00 | 0.00 | 91 | 1017.3 |
| 20260902030657 | 78 | 185 | 0.9 | 1.7 | 0.00 | 0.00 | 0.00 | 91 | 1017.8 |
| 20260902030156 | 78 | 161 | 0.9 | 1.7 | 0.00 | 0.00 | 0.00 | 91 | 1017.6 |
| 20260902025650 | 78 | 188 | 0.9 | 0.9 | 0.00 | 0.00 | 0.00 | 91 | 1017.5 |
| 20260902025146 | 78 | 247 | 0.0 | 0.0 | 0.00 | 0.00 | 0.00 | 91 | 1017.5 |
| 20260902024641 | 78 | 184 | 0.0 | 0.9 | 0.00 | 0.00 | 0.00 | 90 | 1017.3 |
| 20260902024136 | 78 | 171 | 0.0 | 0.9 | 0.00 | 0.00 | 0.00 | 90 | 1017.5 |
| 20260902023631 | 78 | 149 | 0.9 | 0.9 | 0.00 | 0.00 | 0.00 | 90 | 1017.5 |
| 20260902023126 | 78 | 169 | 0.0 | 0.9 | 0.00 | 0.00 | 0.00 | 90 | 1017.7 |
| 20260902022625 | 78 | 144 | 0.9 | 1.7 | 0.00 | 0.00 | 0.00 | 90 | 1017.6 |
| 20260902022121 | 78 | 147 | 0.9 | 1.7 | 0.00 | 0.00 | 0.00 | 90 | 1017.2 |
| 20260902021617 | 78 | 165 | 0.0 | 0.9 | 0.00 | 0.00 | 0.00 | 90 | 1017.4 |
| 20260902021111 | 78 | 144 | 0.9 | 0.9 | 0.00 | 0.00 | 0.00 | 89 | 1017.5 |
| 20260902020608 | 78 | 156 | 0.9 | 0.9 | 0.00 | 0.00 | 0.00 | 89 | 1017.6 |
| 20260902020103 | 78 | 170 | 0.9 | 0.9 | 0.00 | 0.00 | 0.00 | 89 | 1017.3 |
| 20260902015558 | 78 | 174 | 0.0 | 0.9 | 0.00 | 0.00 | 0.00 | 89 | 1017.4 |
| 20260902015054 | 78 | 177 | 0.9 | 1.7 | 0.00 | 0.00 | 0.00 | 88 | 1017.5 |
| 20260902014550 | 79 | 174 | 0.9 | 0.9 | 0.00 | 0.00 | 0.00 | 88 | 1017.2 |
| 20260902014045 | 79 | 155 | 0.0 | 0.9 | 0.00 | 0.00 | 0.00 | 88 | 1016.9 |
| 20260902013544 | 79 | 169 | 0.9 | 0.9 | 0.00 | 0.00 | 0.00 | 88 | 1017.1 |
| 20260902013041 | 79 | 163 | 0.9 | 1.7 | 0.00 | 0.00 | 0.00 | 87 | 1016.9 |
| 20260902012536 | 79 | 186 | 0.0 | 0.9 | 0.00 | 0.00 | 0.00 | 87 | 1017.0 |
| 20260902012031 | 80 | 210 | 0.0 | 0.9 | 0.00 | 0.00 | 0.00 | 87 | 1016.7 |
| 20260902011526 | 80 | 165 | 0.9 | 0.9 | 0.00 | 0.00 | 0.00 | 87 | 1016.8 |
| 20260902011026 | 80 | 194 | 0.0 | 0.9 | 0.00 | 0.00 | 0.00 | 87 | 1016.6 |
| 20260902010525 | 80 | 175 | 0.0 | 0.0 | 0.00 | 0.00 | 0.00 | 86 | 1016.6 |
| 20260902010021 | 80 | 184 | 0.0 | 0.0 | 0.00 | 0.00 | 0.00 | 85 | 1016.7 |
| 20260902005519 | 80 | 171 | 0.0 | 0.0 | 0.00 | 0.00 | 0.00 | 85 | 1016.8 |
| 20260902005016 | 80 | 171 | 0.9 | 0.9 | 0.00 | 0.00 | 0.00 | 84 | 1016.7 |
| 20260902004515 | 81 | 180 | 0.0 | 0.9 | 0.00 | 0.00 | 0.00 | 83 | 1016.8 |
| 20260902004010 | 81 | 154 | 0.0 | 0.9 | 0.00 | 0.00 | 0.00 | 83 | 1016.5 |
| 20260902003506 | 81 | 165 | 0.0 | 0.9 | 0.00 | 0.00 | 0.00 | 83 | 1016.5 |
| 20260902003000 | 81 | 159 | 0.0 | 0.9 | 0.00 | 0.00 | 0.00 | 82 | 1016.4 |
| 20260902002456 | 81 | 168 | 0.0 | 0.9 | 0.00 | 0.00 | 0.00 | 82 | 1016.2 |
| 20260902001956 | 82 | 187 | 0.0 | 0.0 | 0.00 | 0.00 | 0.00 | 82 | 1016.3 |
| 20260902001450 | 82 | 159 | 0.0 | 0.9 | 0.00 | 0.00 | 0.00 | 81 | 1016.3 |
| 20260902000946 | 82 | 138 | 0.9 | 1.7 | 0.00 | 0.00 | 0.00 | 80 | 1016.5 |
| 20260902000444 | 83 | 159 | 0.0 | 0.9 | 0.00 | 0.00 | 0.00 | 79 | 1016.4 |
| 20260901235936 | 83 | 184 | 0.0 | 0.9 | 0.00 | 0.00 | 0.00 | 78 | 1016.5 |
| 20260901235431 | 84 | 210 | 0.0 | 0.9 | 0.00 | 0.00 | 0.00 | 78 | 1016.5 |
| 20260901234926 | 84 | 134 | 0.0 | 0.0 | 0.00 | 0.00 | 0.00 | 74 | 1016.3 |
| 20260901234420 | 85 | 165 | 0.0 | 0.0 | 0.00 | 0.00 | 0.00 | 74 | 1016.4 |
| 20260901233914 | 85 | 172 | 0.0 | 0.0 | 0.00 | 0.00 | 0.00 | 74 | 1016.2 |
| 20260901233410 | 86 | 155 | 0.0 | 0.9 | 0.00 | 0.00 | 0.00 | 71 | 1016.3 |
| 20260901232906 | 86 | 184 | 0.0 | 0.0 | 0.00 | 0.00 | 0.00 | 69 | 1016.3 |
| 20260901232401 | 87 | 216 | 0.0 | 0.0 | 0.00 | 0.00 | 0.00 | 67 | 1016.2 |
| 20260901231856 | 87 | 172 | 0.0 | 0.9 | 0.00 | 0.00 | 0.00 | 68 | 1016.2 |
| 20260901231353 | 88 | 172 | 0.0 | 0.0 | 0.00 | 0.00 | 0.00 | 66 | 1016.5 |
| 20260901230849 | 89 | 235 | 0.0 | 0.9 | 0.00 | 0.00 | 0.00 | 69 | 1016.6 |
| 20260901230348 | 89 | 235 | 0.0 | 0.0 | 0.00 | 0.00 | 0.00 | 63 | 1016.4 |
| 20260901225844 | 89 | 225 | 0.0 | 0.0 | 0.00 | 0.00 | 0.00 | 61 | 1016.5 |
| 20260901225343 | 90 | 217 | 0.0 | 0.9 | 0.00 | 0.00 | 0.00 | 62 | 1016.4 |
| 20260901224838 | 90 | 232 | 0.0 | 0.0 | 0.00 | 0.00 | 0.00 | 67 | 1016.5 |
| 20260901224335 | 91 | 194 | 0.0 | 0.0 | 0.00 | 0.00 | 0.00 | 64 | 1016.5 |
| 20260901223831 | 91 | 184 | 0.0 | 0.0 | 0.00 | 0.00 | 0.00 | 60 | 1016.8 |
| 20260901223326 | 91 | 172 | 0.0 | 0.0 | 0.00 | 0.00 | 0.00 | 61 | 1016.6 |
| 20260901222821 | 92 | 272 | 0.0 | 0.0 | 0.00 | 0.00 | 0.00 | 58 | 1016.8 |
| 20260901222318 | 92 | 235 | 0.0 | 0.0 | 0.00 | 0.00 | 0.00 | 57 | 1016.6 |
| 20260901221813 | 93 | 276 | 0.0 | 0.0 | 0.00 | 0.00 | 0.00 | 55 | 1016.9 |
| 20260901221309 | 94 | 285 | 0.0 | 0.9 | 0.00 | 0.00 | 0.00 | 52 | 1017.0 |
| 20260901220808 | 93 | 254 | 0.0 | 0.9 | 0.00 | 0.00 | 0.00 | 54 | 1016.8 |
| 20260901220302 | 92 | 260 | 0.0 | 1.7 | 0.00 | 0.00 | 0.00 | 54 | 1016.8 |
| 20260901215801 | 93 | 272 | 0.0 | 0.0 | 0.00 | 0.00 | 0.00 | 54 | 1016.6 |
| 20260901215300 | 93 | 260 | 0.0 | 0.9 | 0.00 | 0.00 | 0.00 | 54 | 1016.9 |
| 20260901214759 | 93 | 299 | 0.0 | 0.0 | 0.00 | 0.00 | 0.00 | 55 | 1017.0 |
| 20260901214258 | 93 | 265 | 0.0 | 0.9 | 0.00 | 0.00 | 0.00 | 54 | 1016.8 |
| 20260901213753 | 93 | 259 | 0.0 | 0.9 | 0.00 | 0.00 | 0.00 | 55 | 1016.9 |
| 20260901213253 | 94 | 272 | 0.0 | 0.9 | 0.00 | 0.00 | 0.00 | 54 | 1016.8 |
| 20260901212752 | 94 | 293 | 0.0 | 0.9 | 0.00 | 0.00 | 0.00 | 51 | 1016.7 |
| 20260901212248 | 94 | 265 | 0.0 | 0.0 | 0.00 | 0.00 | 0.00 | 51 | 1016.9 |
| 20260901211743 | 94 | 248 | 1.7 | 1.7 | 0.00 | 0.00 | 0.00 | 49 | 1016.7 |
| 20260901211240 | 94 | 275 | 0.0 | 1.7 | 0.00 | 0.00 | 0.00 | 51 | 1016.9 |
| 20260901210735 | 93 | 299 | 0.0 | 0.0 | 0.00 | 0.00 | 0.00 | 50 | 1017.0 |
| 20260901210230 | 93 | 358 | 0.0 | 0.9 | 0.00 | 0.00 | 0.00 | 52 | 1016.9 |
| 20260901205727 | 94 | 254 | 0.0 | 1.7 | 0.00 | 0.00 | 0.00 | 50 | 1016.8 |
| 20260901205226 | 95 | 272 | 0.0 | 0.0 | 0.00 | 0.00 | 0.00 | 49 | 1017.1 |
| 20260901204722 | 95 | 334 | 0.0 | 0.9 | 0.00 | 0.00 | 0.00 | 46 | 1017.0 |
| 20260901204218 | 94 | 168 | 0.0 | 1.7 | 0.00 | 0.00 | 0.00 | 50 | 1017.1 |
| 20260901203713 | 94 | 193 | 0.0 | 1.7 | 0.00 | 0.00 | 0.00 | 48 | 1017.1 |
| 20260901203207 | 95 | 165 | 0.0 | 0.9 | 0.00 | 0.00 | 0.00 | 50 | 1016.9 |
| 20260901202707 | 95 | 180 | 0.0 | 0.9 | 0.00 | 0.00 | 0.00 | 48 | 1017.2 |
| 20260901202203 | 95 | 225 | 0.0 | 2.6 | 0.00 | 0.00 | 0.00 | 47 | 1017.1 |
| 20260901201659 | 95 | 256 | 0.9 | 3.5 | 0.00 | 0.00 | 0.00 | 45 | 1017.2 |
| 20260901201157 | 95 | 156 | 0.0 | 2.6 | 0.00 | 0.00 | 0.00 | 45 | 1017.4 |
| 20260901200657 | 96 | 63 | 0.0 | 1.7 | 0.00 | 0.00 | 0.00 | 47 | 1017.6 |
| 20260901200152 | 96 | 221 | 0.0 | 2.6 | 0.00 | 0.00 | 0.00 | 47 | 1017.2 |
| 20260901195650 | 96 | 238 | 0.0 | 0.9 | 0.00 | 0.00 | 0.00 | 46 | 1017.4 |
| 20260901195144 | 96 | 272 | 0.0 | 1.7 | 0.00 | 0.00 | 0.00 | 45 | 1017.4 |
| 20260901194640 | 96 | 264 | 0.0 | 3.5 | 0.00 | 0.00 | 0.00 | 44 | 1017.8 |
| 20260901194135 | 96 | 215 | 2.6 | 3.5 | 0.00 | 0.00 | 0.00 | 43 | 1017.4 |
| 20260901193631 | 97 | 295 | 1.7 | 4.3 | 0.00 | 0.00 | 0.00 | 43 | 1017.7 |
| 20260901193130 | 96 | 259 | 0.0 | 1.7 | 0.00 | 0.00 | 0.00 | 46 | 1017.5 |
| 20260901192625 | 96 | 191 | 0.9 | 2.6 | 0.00 | 0.00 | 0.00 | 43 | 1017.8 |
| 20260901192121 | 96 | 262 | 2.6 | 4.3 | 0.00 | 0.00 | 0.00 | 45 | 1017.7 |
| 20260901191617 | 96 | 261 | 0.9 | 3.5 | 0.00 | 0.00 | 0.00 | 46 | 1017.9 |
| 20260901191113 | 95 | 219 | 0.9 | 2.6 | 0.00 | 0.00 | 0.00 | 47 | 1018.1 |
| 20260901190609 | 95 | 119 | 0.0 | 0.9 | 0.00 | 0.00 | 0.00 | 48 | 1017.9 |
| 20260901190108 | 95 | 244 | 0.9 | 1.7 | 0.00 | 0.00 | 0.00 | 47 | 1017.9 |
| 20260901185606 | 95 | 230 | 0.0 | 1.7 | 0.00 | 0.00 | 0.00 | 47 | 1018.1 |
| 20260901185105 | 95 | 151 | 0.9 | 2.6 | 0.00 | 0.00 | 0.00 | 45 | 1018.1 |
| 20260901184601 | 96 | 282 | 0.0 | 2.6 | 0.00 | 0.00 | 0.00 | 46 | 1018.1 |
| 20260901184055 | 96 | 15 | 0.0 | 2.6 | 0.00 | 0.00 | 0.00 | 46 | 1018.0 |
| 20260901183550 | 95 | 234 | 0.0 | 0.9 | 0.00 | 0.00 | 0.00 | 49 | 1018.3 |
| 20260901183045 | 95 | 134 | 1.7 | 2.6 | 0.00 | 0.00 | 0.00 | 47 | 1018.3 |
| 20260901182541 | 96 | 234 | 2.6 | 3.5 | 0.00 | 0.00 | 0.00 | 46 | 1018.4 |
| 20260901182036 | 95 | 286 | 0.9 | 4.3 | 0.00 | 0.00 | 0.00 | 47 | 1018.1 |
| 20260901181535 | 95 | 220 | 0.9 | 6.1 | 0.00 | 0.00 | 0.00 | 46 | 1018.4 |
| 20260901181035 | 95 | 154 | 1.7 | 2.6 | 0.00 | 0.00 | 0.00 | 48 | 1018.3 |
| 20260901180534 | 95 | 331 | 0.9 | 5.2 | 0.00 | 0.00 | 0.00 | 46 | 1018.1 |
| 20260901180029 | 95 | 144 | 3.5 | 3.5 | 0.00 | 0.00 | 0.00 | 47 | 1018.1 |
| 20260901175522 | 94 | 223 | 1.7 | 3.5 | 0.00 | 0.00 | 0.00 | 47 | 1018.1 |
| 20260901175016 | 94 | 248 | 3.5 | 4.3 | 0.00 | 0.00 | 0.00 | 47 | 1017.9 |
| 20260901174513 | 94 | 353 | 1.7 | 2.6 | 0.00 | 0.00 | 0.00 | 47 | 1017.8 |
| 20260901174009 | 94 | 325 | 0.9 | 1.7 | 0.00 | 0.00 | 0.00 | 48 | 1018.0 |
| 20260901173503 | 94 | 240 | 1.7 | 1.7 | 0.00 | 0.00 | 0.00 | 47 | 1018.0 |
| 20260901172959 | 93 | 263 | 2.6 | 3.5 | 0.00 | 0.00 | 0.00 | 47 | 1018.1 |
| 20260901172454 | 93 | 114 | 0.9 | 2.6 | 0.00 | 0.00 | 0.00 | 50 | 1018.4 |
| 20260901171952 | 93 | 133 | 1.7 | 3.5 | 0.00 | 0.00 | 0.00 | 48 | 1018.1 |
| 20260901171451 | 93 | 158 | 1.7 | 1.7 | 0.00 | 0.00 | 0.00 | 50 | 1018.3 |
| 20260901170950 | 93 | 267 | 2.6 | 2.6 | 0.00 | 0.00 | 0.00 | 51 | 1018.2 |
| 20260901170445 | 93 | 217 | 4.3 | 4.3 | 0.00 | 0.00 | 0.00 | 50 | 1018.0 |
| 20260901165944 | 93 | 222 | 0.9 | 2.6 | 0.00 | 0.00 | 0.00 | 55 | 1018.1 |
| 20260901165439 | 92 | 132 | 0.0 | 3.5 | 0.00 | 0.00 | 0.00 | 54 | 1018.5 |
| 20260901164935 | 92 | 147 | 0.0 | 1.7 | 0.00 | 0.00 | 0.00 | 53 | 1018.4 |
| 20260901164430 | 92 | 260 | 0.0 | 4.3 | 0.00 | 0.00 | 0.00 | 52 | 1018.6 |
| 20260901163925 | 92 | 210 | 0.0 | 2.6 | 0.00 | 0.00 | 0.00 | 53 | 1018.5 |
| 20260901163420 | 91 | 303 | 1.7 | 4.3 | 0.00 | 0.00 | 0.00 | 53 | 1018.6 |
| 20260901162919 | 91 | 235 | 3.5 | 3.5 | 0.00 | 0.00 | 0.00 | 58 | 1018.6 |
| 20260901162414 | 91 | 327 | 0.0 | 1.7 | 0.00 | 0.00 | 0.00 | 58 | 1018.8 |
| 20260901161908 | 91 | 155 | 1.7 | 1.7 | 0.00 | 0.00 | 0.00 | 59 | 1018.9 |
| 20260901161407 | 91 | 193 | 0.9 | 1.7 | 0.00 | 0.00 | 0.00 | 58 | 1019.0 |
| 20260901160902 | 91 | 257 | 0.0 | 3.5 | 0.00 | 0.00 | 0.00 | 59 | 1019.2 |
| 20260901160358 | 90 | 166 | 0.0 | 2.6 | 0.00 | 0.00 | 0.00 | 62 | 1019.1 |
| 20260901155858 | 90 | 169 | 1.7 | 4.3 | 0.00 | 0.00 | 0.00 | 60 | 1019.2 |
| 20260901155352 | 90 | 265 | 2.6 | 3.5 | 0.00 | 0.00 | 0.00 | 60 | 1019.2 |
| 20260901154849 | 89 | 225 | 0.9 | 2.6 | 0.00 | 0.00 | 0.00 | 61 | 1019.1 |
| 20260901154348 | 89 | 186 | 1.7 | 2.6 | 0.00 | 0.00 | 0.00 | 63 | 1019.2 |
| 20260901153843 | 90 | 140 | 0.9 | 3.5 | 0.00 | 0.00 | 0.00 | 62 | 1019.4 |
| 20260901153338 | 90 | 242 | 1.7 | 3.5 | 0.00 | 0.00 | 0.00 | 63 | 1019.3 |
| 20260901152836 | 89 | 198 | 3.5 | 4.3 | 0.00 | 0.00 | 0.00 | 61 | 1019.4 |
| 20260901152337 | 89 | 285 | 0.0 | 2.6 | 0.00 | 0.00 | 0.00 | 62 | 1019.3 |
| 20260901151832 | 89 | 234 | 0.9 | 3.5 | 0.00 | 0.00 | 0.00 | 64 | 1019.6 |
| 20260901151332 | 88 | 258 | 1.7 | 2.6 | 0.00 | 0.00 | 0.00 | 67 | 1019.3 |
| 20260901150826 | 88 | 188 | 0.0 | 2.6 | 0.00 | 0.00 | 0.00 | 65 | 1019.4 |
| 20260901150324 | 87 | 172 | 0.9 | 1.7 | 0.00 | 0.00 | 0.00 | 69 | 1019.5 |
| 20260901145821 | 87 | 176 | 2.6 | 2.6 | 0.00 | 0.00 | 0.00 | 69 | 1019.4 |
| 20260901145315 | 86 | 138 | 1.7 | 1.7 | 0.00 | 0.00 | 0.00 | 68 | 1019.5 |
| 20260901144811 | 87 | 197 | 2.6 | 2.6 | 0.00 | 0.00 | 0.00 | 67 | 1019.7 |
| 20260901144307 | 87 | 133 | 0.9 | 2.6 | 0.00 | 0.00 | 0.00 | 69 | 1019.7 |
| 20260901143802 | 87 | 240 | 1.7 | 2.6 | 0.00 | 0.00 | 0.00 | 69 | 1019.8 |
| 20260901143258 | 86 | 235 | 0.0 | 0.9 | 0.00 | 0.00 | 0.00 | 71 | 1019.7 |
| 20260901142754 | 85 | 187 | 0.0 | 1.7 | 0.00 | 0.00 | 0.00 | 74 | 1019.6 |
| 20260901142252 | 84 | 272 | 0.0 | 0.0 | 0.00 | 0.00 | 0.00 | 74 | 1019.6 |
| 20260901141742 | 85 | 210 | 0.0 | 0.9 | 0.00 | 0.00 | 0.00 | 73 | 1019.6 |
| 20260901141242 | 86 | 155 | 0.9 | 0.9 | 0.00 | 0.00 | 0.00 | 72 | 1019.6 |
| 20260901140742 | 87 | 150 | 1.7 | 2.6 | 0.00 | 0.00 | 0.00 | 71 | 1019.6 |
| 20260901140240 | 86 | 170 | 1.7 | 1.7 | 0.00 | 0.00 | 0.00 | 71 | 1019.5 |
| 20260901135736 | 85 | 247 | 0.0 | 0.9 | 0.00 | 0.00 | 0.00 | 75 | 1019.5 |
| 20260901135235 | 83 | 210 | 0.9 | 1.7 | 0.00 | 0.00 | 0.00 | 79 | 1019.4 |
| 20260901134732 | 82 | 182 | 0.0 | 1.7 | 0.00 | 0.00 | 0.00 | 80 | 1019.6 |
| 20260901134231 | 81 | 119 | 0.0 | 2.6 | 0.00 | 0.00 | 0.00 | 81 | 1019.7 |
| 20260901133731 | 81 | 175 | 0.0 | 1.7 | 0.00 | 0.00 | 0.00 | 83 | 1019.5 |
| 20260901133231 | 81 | 132 | 0.0 | 2.6 | 0.00 | 0.00 | 0.00 | 83 | 1019.6 |
| 20260901132729 | 80 | 177 | 0.0 | 0.9 | 0.00 | 0.00 | 0.00 | 84 | 1019.8 |
| 20260901132224 | 80 | 194 | 0.0 | 1.7 | 0.00 | 0.00 | 0.00 | 85 | 1019.5 |
| 20260901131719 | 79 | 270 | 0.0 | 0.9 | 0.00 | 0.00 | 0.00 | 87 | 1019.6 |
| 20260901131218 | 78 | 147 | 0.0 | 0.9 | 0.00 | 0.00 | 0.00 | 89 | 1019.7 |
| 20260901130714 | 78 | 187 | 0.0 | 0.9 | 0.00 | 0.00 | 0.00 | 90 | 1019.7 |
| 20260901130213 | 77 | 159 | 0.0 | 0.9 | 0.00 | 0.00 | 0.00 | 92 | 1019.8 |
| 20260901125711 | 77 | 159 | 0.0 | 1.7 | 0.00 | 0.00 | 0.00 | 94 | 1019.9 |
| 20260901125207 | 76 | 177 | 0.0 | 0.9 | 0.00 | 0.00 | 0.00 | 95 | 1019.9 |
| 20260901124701 | 75 | 242 | 0.0 | 0.0 | 0.00 | 0.00 | 0.00 | 96 | 1019.6 |
| 20260901124201 | 75 | 242 | 0.0 | 0.0 | 0.00 | 0.00 | 0.00 | 96 | 1019.8 |
| 20260901123655 | 74 | 147 | 0.0 | 1.7 | 0.00 | 0.00 | 0.00 | 97 | 1020.1 |
| 20260901123155 | 74 | 119 | 0.9 | 1.7 | 0.00 | 0.00 | 0.00 | 97 | 1019.9 |
| 20260901122654 | 74 | 133 | 0.9 | 1.7 | 0.00 | 0.00 | 0.00 | 97 | 1019.7 |
| 20260901122149 | 74 | 131 | 1.7 | 1.7 | 0.00 | 0.00 | 0.00 | 98 | 1019.8 |
| 20260901121643 | 74 | 74 | 0.0 | 0.9 | 0.00 | 0.00 | 0.00 | 98 | 1019.8 |
| 20260901121139 | 73 | 190 | 0.0 | 0.9 | 0.00 | 0.00 | 0.00 | 99 | 1019.8 |
| 20260901120638 | 73 | 156 | 0.0 | 0.9 | 0.00 | 0.00 | 0.00 | 99 | 1019.9 |
| 20260901120133 | 73 | 158 | 0.0 | 1.7 | 0.00 | 0.00 | 0.00 | 99 | 1019.8 |
| 20260901115629 | 72 | 147 | 0.0 | 0.0 | 0.00 | 0.00 | 0.00 | 99 | 1019.8 |
| 20260901115125 | 72 | 154 | 0.0 | 0.0 | 0.00 | 0.00 | 0.00 | 99 | 1019.9 |
| 20260901114622 | 72 | 150 | 0.0 | 0.9 | 0.00 | 0.00 | 0.00 | 99 | 1019.9 |
| 20260901114120 | 72 | 169 | 0.0 | 1.7 | 0.00 | 0.00 | 0.00 | 99 | 1019.9 |
| 20260901113619 | 72 | 154 | 0.0 | 0.9 | 0.00 | 0.00 | 0.00 | 99 | 1019.5 |